Time;durP1;ratioP1;P1;durP2;ratioP2;P2;SDS_P1;SDS_P2;PMS_P1;PMS_P2;Temp;Humidity;BMP_temperature;BMP_pressure;BME280_temperature;BME280_humidity;BME280_pressure;Samples;Min_cycle;Max_cycle;Signal;HPM_P1;HPM_P2
2023/03/10 00:01:34;;;;;;;20.45;1.75;;;;;;;21.68;57.05;97295.41;7309129;19;129422;-38
2023/03/10 00:04:00;;;;;;;51.77;2.80;;;;;;;21.64;57.20;97296.84;7306569;19;131509;-36
2023/03/10 00:06:31;;;;;;;44.15;2.78;;;;;;;21.64;57.30;97293.41;7310493;19;129632;-39
2023/03/10 00:08:56;;;;;;;46.67;3.05;;;;;;;21.59;57.88;97283.53;7307931;19;130341;-40
2023/03/10 00:11:22;;;;;;;58.47;3.50;;;;;;;21.60;57.61;97285.13;7307113;19;130534;-40
2023/03/10 00:13:47;;;;;;;58.40;3.30;;;;;;;21.58;57.55;97292.38;7310729;19;128693;-38
2023/03/10 00:16:19;;;;;;;48.28;2.80;;;;;;;21.59;57.82;97283.53;7309169;19;129896;-37
2023/03/10 00:18:46;;;;;;;18.30;1.35;;;;;;;21.58;57.53;97275.88;7309534;19;129486;-38
2023/03/10 00:21:16;;;;;;;44.13;2.83;;;;;;;21.46;57.68;97267.81;7306765;19;129455;-37
2023/03/10 00:23:42;;;;;;;57.20;3.30;;;;;;;21.43;58.02;97262.97;7308074;19;129104;-40
2023/03/10 00:26:12;;;;;;;54.88;3.05;;;;;;;21.52;58.12;97276.66;7311425;19;128776;-37
2023/03/10 00:28:37;;;;;;;30.92;1.83;;;;;;;21.51;57.35;97270.63;7314520;19;130658;-37
2023/03/10 00:31:06;;;;;;;30.58;2.00;;;;;;;21.51;58.00;97275.88;7315531;19;130155;-38
2023/03/10 00:33:33;;;;;;;62.47;3.58;;;;;;;21.48;57.77;97272.81;7313162;19;129314;-37
2023/03/10 00:36:06;;;;;;;44.33;2.45;;;;;;;21.44;59.79;97264.56;7315773;19;129213;-39
2023/03/10 00:38:32;;;;;;;65.93;3.95;;;;;;;21.45;57.28;97260.94;7313252;19;131143;-38
2023/03/10 00:41:02;;;;;;;27.88;1.70;;;;;;;21.41;57.64;97254.50;7315203;19;129767;-35
2023/03/10 00:43:28;;;;;;;29.70;2.13;;;;;;;21.42;57.61;97255.31;7316331;19;130317;-40
2023/03/10 00:45:53;;;;;;;58.80;3.28;;;;;;;21.41;57.65;97244.06;7312288;19;129754;-41
2023/03/10 00:48:19;;;;;;;73.68;4.10;;;;;;;21.40;57.86;97244.25;7316807;19;129067;-36
2023/03/10 00:50:44;;;;;;;49.10;2.80;;;;;;;21.38;58.23;97244.44;7315063;19;129321;-36
2023/03/10 00:53:09;;;;;;;64.55;3.70;;;;;;;21.31;58.08;97222.69;7316116;19;129062;-40
2023/03/10 00:55:35;;;;;;;66.05;3.63;;;;;;;21.34;57.61;97222.31;7315496;19;130013;-39
2023/03/10 00:58:00;;;;;;;36.17;2.08;;;;;;;21.35;57.84;97218.72;7317003;19;129431;-39
2023/03/10 01:00:26;;;;;;;44.63;2.63;;;;;;;21.27;58.06;97205.78;7312940;19;131067;-43
2023/03/10 01:02:52;;;;;;;45.70;2.58;;;;;;;21.32;57.95;97211.22;7314622;19;130285;-39
2023/03/10 01:05:18;;;;;;;93.88;5.75;;;;;;;21.32;58.52;97207.84;7312351;19;129304;-41
2023/03/10 01:07:43;;;;;;;51.75;3.08;;;;;;;21.30;58.07;97212.44;7314874;19;129806;-38
2023/03/10 01:10:10;;;;;;;25.02;1.52;;;;;;;21.29;58.23;97206.41;7315693;19;130288;-39
2023/03/10 01:12:35;;;;;;;46.30;2.70;;;;;;;21.27;57.80;97200.56;7314236;19;129642;-35
2023/03/10 01:15:01;;;;;;;79.20;4.73;;;;;;;21.30;58.19;97194.97;7313790;19;129431;-40
2023/03/10 01:17:26;;;;;;;41.17;2.50;;;;;;;21.30;59.13;97183.69;7314391;19;129433;-40
2023/03/10 01:19:51;;;;;;;43.88;2.65;;;;;;;21.30;58.67;97178.47;7312531;19;130264;-41
2023/03/10 01:22:18;;;;;;;74.60;4.47;;;;;;;21.27;58.38;97174.41;7315322;19;128917;-35
2023/03/10 01:24:43;;;;;;;46.20;2.63;;;;;;;21.26;57.85;97172.00;7311836;19;129898;-34
2023/03/10 01:27:08;;;;;;;10.23;1.07;;;;;;;21.16;57.81;97146.25;7313085;19;129140;-41
2023/03/10 01:29:34;;;;;;;37.63;2.20;;;;;;;21.25;58.55;97166.00;7315100;19;129765;-38
2023/03/10 01:31:59;;;;;;;65.65;3.42;;;;;;;21.23;58.03;97160.16;7310292;19;132286;-40
2023/03/10 01:34:24;;;;;;;65.63;3.90;;;;;;;21.21;58.69;97159.53;7314855;19;128977;-43
2023/03/10 01:36:50;;;;;;;46.20;2.70;;;;;;;21.21;58.07;97145.66;7312027;19;129161;-38
2023/03/10 01:39:15;;;;;;;47.75;2.72;;;;;;;21.21;58.41;97143.88;7314139;19;129637;-38
2023/03/10 01:41:41;;;;;;;63.13;3.37;;;;;;;21.19;58.56;97140.63;7310646;19;131309;-37
2023/03/10 01:44:14;;;;;;;28.10;1.92;;;;;;;21.17;58.62;97140.00;7314841;19;129021;-42
2023/03/10 01:46:47;;;;;;;72.75;4.32;;;;;;;21.18;58.96;97128.59;7308541;19;129678;-42
2023/03/10 01:49:42;;;;;;;34.47;2.05;;;;;;;21.16;58.36;97129.75;7314521;19;129734;-39
2023/03/10 01:52:13;;;;;;;21.00;1.58;;;;;;;21.15;59.92;97118.53;7309264;19;129798;-39
2023/03/10 01:54:45;;;;;;;34.92;2.03;;;;;;;21.16;58.16;97114.91;7314267;19;129139;-41
2023/03/10 01:57:13;;;;;;;64.75;3.53;;;;;;;21.15;59.28;97112.50;7309084;19;129354;-38
2023/03/10 01:59:39;;;;;;;33.28;2.08;;;;;;;21.13;58.21;97110.06;7314079;19;131160;-38
2023/03/10 02:02:05;;;;;;;33.23;2.07;;;;;;;21.12;58.98;97097.22;7310664;19;129190;-36
2023/03/10 02:04:51;;;;;;;35.53;2.07;;;;;;;21.14;60.23;97097.81;7312431;19;128830;-37
2023/03/10 02:07:20;;;;;;;71.43;4.25;;;;;;;21.13;59.26;97094.41;7309545;19;129282;-40
2023/03/10 02:09:49;;;;;;;52.80;2.90;;;;;;;21.08;59.01;97091.56;7313829;19;129843;-40
2023/03/10 02:12:15;;;;;;;61.55;3.30;;;;;;;21.12;59.08;97087.53;7312136;19;129297;-40
2023/03/10 02:14:43;;;;;;;43.75;2.67;;;;;;;21.03;58.58;97067.84;7314522;19;128935;-36
2023/03/10 02:17:13;;;;;;;31.17;2.03;;;;;;;21.05;58.47;97078.91;7312465;19;129408;-42
2023/03/10 02:19:47;;;;;;;41.28;2.45;;;;;;;21.12;58.71;97081.53;7314283;19;129597;-40
2023/03/10 02:22:14;;;;;;;46.53;2.65;;;;;;;21.09;58.30;97077.50;7311225;19;128876;-41
2023/03/10 02:24:42;;;;;;;25.17;1.88;;;;;;;21.08;58.48;97069.84;7313119;19;128854;-36
2023/03/10 02:27:26;;;;;;;12.32;0.98;;;;;;;21.07;59.79;97063.84;7312581;19;129085;-37
2023/03/10 02:29:59;;;;;;;35.65;2.05;;;;;;;21.07;59.20;97058.63;7313204;19;129291;-36
2023/03/10 02:32:28;;;;;;;52.03;3.05;;;;;;;20.95;58.66;97044.50;7314161;19;130658;-39
2023/03/10 02:34:53;;;;;;;45.78;2.63;;;;;;;21.03;59.03;97052.19;7312816;19;129653;-39
2023/03/10 02:37:28;;;;;;;65.30;3.80;;;;;;;21.04;58.59;97059.00;7311487;19;130056;-43
2023/03/10 02:39:54;;;;;;;35.88;2.17;;;;;;;21.05;59.28;97060.63;7313572;19;129945;-40
2023/03/10 02:42:21;;;;;;;49.13;2.83;;;;;;;21.02;58.71;97049.75;7313845;19;129614;-39
2023/03/10 02:44:48;;;;;;;67.00;3.55;;;;;;;21.01;58.79;97053.34;7313321;19;129389;-40
2023/03/10 02:47:13;;;;;;;;;;;;;;;21.02;59.67;97054.97;7312484;19;129799;-41
2023/03/10 02:49:41;;;;;;;38.28;2.38;;;;;;;21.00;58.75;97047.34;7313890;19;130185;-42
2023/03/10 02:52:16;;;;;;;24.42;1.52;;;;;;;20.99;58.67;97045.72;7310964;19;129460;-37
2023/03/10 02:54:41;;;;;;;38.67;2.15;;;;;;;21.00;59.34;97044.75;7312761;19;129521;-39
2023/03/10 02:57:07;;;;;;;48.58;2.58;;;;;;;21.01;59.06;97040.28;7311779;19;129842;-37
2023/03/10 02:59:32;;;;;;;31.08;1.63;;;;;;;21.00;59.04;97041.31;7312898;19;130109;-40
2023/03/10 03:01:58;;;;;;;32.90;1.97;;;;;;;21.01;58.69;97033.28;7310956;19;128967;-38
2023/03/10 03:04:23;;;;;;;63.45;3.85;;;;;;;20.99;60.08;97030.03;7310739;19;130189;-37
2023/03/10 03:06:48;;;;;;;51.78;2.92;;;;;;;20.97;59.20;97026.84;7310466;19;129915;-38
2023/03/10 03:09:14;;;;;;;43.33;2.53;;;;;;;20.95;59.01;97017.56;7313088;19;129113;-40
2023/03/10 03:11:39;;;;;;;34.85;2.00;;;;;;;20.95;59.14;97007.94;7310460;19;129223;-40
2023/03/10 03:14:05;;;;;;;35.22;1.90;;;;;;;20.96;59.00;97014.75;7312164;19;131331;-38
2023/03/10 03:16:30;;;;;;;104.40;5.53;;;;;;;20.97;59.59;97005.97;7308877;19;129079;-36
2023/03/10 03:18:55;;;;;;;41.75;2.35;;;;;;;20.95;58.79;97000.09;7311706;19;129166;-35
2023/03/10 03:21:21;;;;;;;48.85;2.72;;;;;;;20.95;59.22;96994.88;7310138;19;129342;-36
2023/03/10 03:23:46;;;;;;;51.65;2.85;;;;;;;20.96;59.10;96993.06;7310103;19;129026;-41
2023/03/10 03:26:14;;;;;;;48.38;2.70;;;;;;;20.95;59.57;96983.59;7309511;19;130926;-40
2023/03/10 03:28:40;;;;;;;11.70;1.27;;;;;;;20.95;59.88;96983.59;7312656;19;130391;-38
2023/03/10 03:31:05;;;;;;;33.00;1.95;;;;;;;20.93;59.37;96983.81;7309634;19;129254;-37
2023/03/10 03:33:30;;;;;;;66.32;3.53;;;;;;;20.91;58.92;96977.97;7310818;19;130374;-37
2023/03/10 03:35:56;;;;;;;40.15;2.33;;;;;;;20.91;59.40;96979.81;7307753;19;129015;-42
2023/03/10 03:38:21;;;;;;;48.72;2.75;;;;;;;20.89;59.33;96972.13;7311727;19;129964;-35
2023/03/10 03:40:46;;;;;;;62.17;3.67;;;;;;;20.83;60.64;96962.50;7307170;19;129133;-40
2023/03/10 03:43:13;;;;;;;70.00;3.65;;;;;;;20.91;59.01;96954.47;7311254;19;129379;-37
2023/03/10 03:45:38;;;;;;;62.47;3.55;;;;;;;20.93;59.66;96957.69;7306630;19;129561;-43
2023/03/10 03:48:03;;;;;;;36.75;2.03;;;;;;;20.93;60.20;96952.47;7309589;19;129912;-41
2023/03/10 03:50:29;;;;;;;148.85;8.00;;;;;;;20.84;60.04;96930.16;7308122;19;131874;-39
2023/03/10 03:52:54;;;;;;;52.90;2.83;;;;;;;20.91;59.68;96945.84;7311571;19;129206;-40
2023/03/10 03:55:20;;;;;;;43.15;2.67;;;;;;;20.92;59.07;96939.63;7311165;19;129523;-41
2023/03/10 03:57:46;;;;;;;24.40;1.58;;;;;;;20.89;59.49;96940.81;7307926;19;129902;-38
2023/03/10 04:00:18;;;;;;;43.15;2.67;;;;;;;20.88;59.19;96941.81;7308884;19;129004;-39
2023/03/10 04:02:43;;;;;;;77.18;4.10;;;;;;;20.79;61.00;96919.53;7307790;19;129709;-36
2023/03/10 04:05:09;;;;;;;115.32;7.18;;;;;;;20.91;59.78;96928.34;7309033;19;129399;-41
2023/03/10 04:07:37;;;;;;;31.05;1.88;;;;;;;20.91;59.88;96923.13;7307644;19;131076;-40
2023/03/10 04:10:03;;;;;;;33.92;1.88;;;;;;;20.87;59.63;96916.72;7310907;19;129055;-38
2023/03/10 04:12:28;;;;;;;65.50;3.47;;;;;;;20.81;59.53;96912.28;7308351;19;131265;-41
2023/03/10 04:14:54;;;;;;;42.97;2.55;;;;;;;20.89;59.68;96919.91;7309674;19;129469;-42
2023/03/10 04:17:19;;;;;;;51.53;2.85;;;;;;;20.88;59.60;96913.09;7308241;19;129692;-36
2023/03/10 04:19:44;;;;;;;45.47;2.57;;;;;;;20.88;59.97;96915.69;7310047;19;129441;-39
2023/03/10 04:22:10;;;;;;;27.92;1.88;;;;;;;20.86;59.52;96899.41;7308114;19;129228;-44
2023/03/10 04:24:38;;;;;;;35.17;1.98;;;;;;;20.85;59.59;96910.06;7307430;19;130274;-40
2023/03/10 04:27:04;;;;;;;30.75;1.88;;;;;;;20.86;59.54;96904.66;7307669;19;129717;-35
2023/03/10 04:29:30;;;;;;;104.03;5.47;;;;;;;20.87;60.03;96903.66;7308185;19;129585;-39
2023/03/10 04:31:55;;;;;;;34.25;2.20;;;;;;;20.87;60.21;96901.03;7307042;19;129199;-35
2023/03/10 04:34:20;;;;;;;53.80;2.80;;;;;;;20.84;59.96;96890.97;7310031;19;130946;-38
2023/03/10 04:36:46;;;;;;;43.70;2.45;;;;;;;20.89;59.93;96887.78;7305649;19;129386;-35
2023/03/10 04:39:11;;;;;;;49.27;2.70;;;;;;;21.00;59.44;96885.41;7309055;19;128945;-39
2023/03/10 04:41:37;;;;;;;46.17;2.47;;;;;;;21.28;58.32;96883.38;7307756;19;128904;-38
2023/03/10 04:44:03;;;;;;;34.40;2.00;;;;;;;21.59;57.46;96883.50;7306473;19;130155;-42
2023/03/10 04:46:30;;;;;;;31.33;2.00;;;;;;;21.93;56.10;96883.22;7307114;19;129795;-34
2023/03/10 04:48:56;;;;;;;66.97;3.55;;;;;;;22.30;55.16;96883.44;7306903;19;130646;-37
2023/03/10 04:51:21;;;;;;;95.13;4.63;;;;;;;22.56;54.41;96880.72;7306731;19;129272;-38
2023/03/10 04:53:47;;;;;;;71.67;4.13;;;;;;;22.84;53.75;96886.38;7305480;19;130351;-39
2023/03/10 04:56:12;;;;;;;50.00;3.13;;;;;;;22.95;53.29;96877.81;7304476;19;129811;-40
2023/03/10 04:58:38;;;;;;;55.50;3.00;;;;;;;23.08;52.25;96881.13;7309743;19;130268;-37
2023/03/10 05:01:11;;;;;;;78.85;4.22;;;;;;;23.24;52.05;96885.00;7304499;19;129569;-42
2023/03/10 05:03:37;;;;;;;37.22;2.05;;;;;;;23.32;51.44;96884.75;7306317;19;130498;-43
2023/03/10 05:06:03;;;;;;;12.82;0.85;;;;;;;23.41;51.83;96875.63;7304552;19;129515;-39
2023/03/10 05:08:28;;;;;;;181.53;9.67;;;;;;;23.45;51.64;96879.41;7305342;19;132337;-39
2023/03/10 05:10:54;;;;;;;51.63;3.10;;;;;;;23.63;50.88;96887.31;7307871;19;129395;-41
2023/03/10 05:13:19;;;;;;;54.73;3.10;;;;;;;23.53;51.57;96884.38;7313905;19;129482;-42
2023/03/10 05:15:45;;;;;;;53.10;3.03;;;;;;;23.67;51.05;96892.91;7309297;19;130398;-38
2023/03/10 05:18:11;;;;;;;58.13;3.08;;;;;;;23.58;50.67;96868.78;7314510;19;129033;-43
2023/03/10 05:20:37;;;;;;;33.97;1.95;;;;;;;23.75;50.75;96882.13;7315976;19;129054;-41
2023/03/10 05:23:03;;;;;;;46.80;2.53;;;;;;;23.73;50.76;96873.66;7315569;19;130145;-40
2023/03/10 05:25:29;;;;;;;32.45;1.88;;;;;;;23.68;50.42;96858.59;7308252;19;130145;-41
2023/03/10 05:27:54;;;;;;;61.67;3.30;;;;;;;23.79;50.89;96873.59;7313531;19;129731;-40
2023/03/10 05:30:20;;;;;;;71.15;3.83;;;;;;;23.84;50.24;96870.31;7310881;19;129182;-39
2023/03/10 05:32:45;;;;;;;52.73;2.80;;;;;;;23.84;50.45;96868.50;7313410;19;129082;-38
2023/03/10 05:35:12;;;;;;;119.95;7.15;;;;;;;23.95;50.33;96864.31;7313531;19;129817;-36
2023/03/10 05:37:39;;;;;;;101.57;5.32;;;;;;;23.98;50.38;96854.19;7311407;19;130358;-40
2023/03/10 05:40:11;;;;;;;41.92;2.20;;;;;;;24.11;49.92;96859.28;7312653;19;129064;-38
2023/03/10 05:42:37;;;;;;;38.30;2.22;;;;;;;24.05;49.84;96859.38;7314576;19;131536;-42
2023/03/10 05:45:04;;;;;;;113.97;6.47;;;;;;;23.92;50.56;96856.88;7307235;19;129442;-45
2023/03/10 05:47:30;;;;;;;59.53;3.00;;;;;;;23.94;50.29;96862.72;7311818;19;129785;-36
2023/03/10 05:49:55;;;;;;;34.20;1.87;;;;;;;23.88;50.39;96858.34;7315669;19;129459;-36
2023/03/10 05:52:20;;;;;;;78.70;4.47;;;;;;;23.71;50.43;96855.53;7308916;19;129310;-41
2023/03/10 05:54:46;;;;;;;49.00;2.57;;;;;;;23.62;50.91;96859.44;7313666;19;129267;-40
2023/03/10 05:57:11;;;;;;;89.53;4.57;;;;;;;23.54;50.42;96857.13;7310633;19;129424;-43
2023/03/10 05:59:36;;;;;;;58.55;3.20;;;;;;;23.43;50.30;96860.47;7313817;19;129247;-38
2023/03/10 06:02:02;;;;;;;78.57;4.50;;;;;;;23.35;51.17;96863.38;7307342;19;129668;-36
2023/03/10 06:04:31;;;;;;;36.83;2.13;;;;;;;23.24;51.29;96861.41;7312349;19;129328;-39
2023/03/10 06:06:56;;;;;;;60.20;3.40;;;;;;;23.07;48.26;96870.88;7310161;19;128870;-39
2023/03/10 06:09:21;;;;;;;52.97;3.03;;;;;;;22.89;48.60;96860.34;7311991;19;129664;-38
2023/03/10 06:11:47;;;;;;;61.50;3.65;;;;;;;22.71;49.32;96861.06;7308447;19;129259;-39
2023/03/10 06:14:12;;;;;;;28.60;2.00;;;;;;;22.59;49.46;96861.97;7310238;19;131122;-38
2023/03/10 06:16:38;;;;;;;53.58;3.30;;;;;;;22.50;49.30;96863.19;7310912;19;129296;-40
2023/03/10 06:19:03;;;;;;;36.23;2.33;;;;;;;22.36;49.89;96861.69;7312565;19;130175;-39
2023/03/10 06:21:29;;;;;;;18.90;1.67;;;;;;;22.22;50.98;96850.50;7311751;19;129544;-38
2023/03/10 06:23:55;;;;;;;57.78;3.33;;;;;;;22.25;51.85;96862.34;7311712;19;129607;-37
2023/03/10 06:26:21;;;;;;;82.35;4.72;;;;;;;22.19;51.86;96860.56;7304485;19;129322;-38
2023/03/10 06:28:47;;;;;;;50.90;2.92;;;;;;;22.14;52.78;96857.78;7313559;19;128884;-41
2023/03/10 06:31:16;;;;;;;39.17;2.47;;;;;;;22.05;52.71;96856.44;7311485;19;129109;-36
2023/03/10 06:33:41;;;;;;;41.38;2.53;;;;;;;21.96;53.67;96856.63;7312683;19;129155;-36
2023/03/10 06:36:09;;;;;;;69.13;3.90;;;;;;;21.89;54.13;96868.97;7312339;19;129016;-38
2023/03/10 06:38:35;;;;;;;42.47;2.53;;;;;;;21.80;54.13;96851.88;7314712;19;129594;-38
2023/03/10 06:41:00;;;;;;;38.63;2.45;;;;;;;21.71;54.02;96854.91;7312146;19;129430;-37
2023/03/10 06:43:25;;;;;;;53.53;3.03;;;;;;;21.71;54.21;96862.75;7312458;19;129685;-34
2023/03/10 06:45:51;;;;;;;52.65;3.05;;;;;;;21.66;54.53;96859.97;7309866;19;129957;-39
2023/03/10 06:48:16;;;;;;;45.17;2.87;;;;;;;21.60;55.24;96855.56;7313328;19;129426;-38
2023/03/10 06:50:43;;;;;;;34.47;2.03;;;;;;;21.51;54.90;96852.38;7312381;19;129451;-40
2023/03/10 06:53:10;;;;;;;36.08;2.15;;;;;;;21.48;55.44;96842.31;7312674;19;131289;-41
2023/03/10 06:55:36;;;;;;;56.58;3.40;;;;;;;21.48;55.70;96844.94;7312228;19;128954;-37
2023/03/10 06:58:02;;;;;;;53.35;3.13;;;;;;;21.49;55.83;96861.41;7311520;19;129192;-37
2023/03/10 07:00:28;;;;;;;27.88;1.73;;;;;;;21.32;55.78;96837.53;7312289;19;129644;-36
2023/03/10 07:02:53;;;;;;;83.70;4.23;;;;;;;21.43;55.80;96854.41;7311979;19;129614;-37
2023/03/10 07:05:21;;;;;;;56.85;3.30;;;;;;;21.40;56.03;96849.59;7308934;19;129254;-38
2023/03/10 07:07:49;;;;;;;40.70;2.45;;;;;;;21.39;56.35;96864.44;7312187;19;129027;-40
2023/03/10 07:10:15;;;;;;;29.73;2.08;;;;;;;21.38;56.58;96862.84;7311948;19;129059;-39
2023/03/10 07:12:41;;;;;;;45.85;2.92;;;;;;;21.37;56.66;96861.22;7311319;19;129327;-41
2023/03/10 07:15:07;;;;;;;44.85;2.88;;;;;;;21.36;57.16;96870.09;7311538;19;129256;-37
2023/03/10 07:17:32;;;;;;;32.33;1.97;;;;;;;21.25;56.16;96847.22;7311706;19;129772;-38
2023/03/10 07:19:58;;;;;;;37.70;2.33;;;;;;;21.36;56.79;96870.09;7311844;19;130768;-40
2023/03/10 07:22:23;;;;;;;71.63;3.88;;;;;;;21.35;56.72;96868.50;7311617;19;129187;-39
2023/03/10 07:24:48;;;;;;;34.13;2.40;;;;;;;21.27;56.60;96854.84;7309332;19;130405;-42
2023/03/10 07:27:14;;;;;;;46.55;2.75;;;;;;;21.31;56.47;96867.28;7308762;19;129939;-38
2023/03/10 07:29:39;;;;;;;25.58;1.52;;;;;;;21.25;56.51;96868.09;7311935;19;129160;-39
2023/03/10 07:32:05;;;;;;;61.05;3.33;;;;;;;21.23;57.06;96869.31;7308995;19;130897;-39
2023/03/10 07:34:30;;;;;;;36.67;2.20;;;;;;;21.22;57.45;96867.72;7310889;19;129271;-41
2023/03/10 07:36:55;;;;;;;35.08;2.13;;;;;;;21.19;57.04;96863.69;7307427;19;129352;-35
2023/03/10 07:39:21;;;;;;;50.47;3.10;;;;;;;21.20;57.38;96874.94;7311043;19;129035;-38
2023/03/10 07:41:46;;;;;;;52.92;3.33;;;;;;;21.17;57.44;96875.34;7308797;19;129611;-40
2023/03/10 07:44:11;;;;;;;38.03;2.30;;;;;;;21.15;57.14;96883.41;7311037;19;129493;-38
2023/03/10 07:46:37;;;;;;;29.03;1.77;;;;;;;21.15;57.30;96875.56;7307084;19;129617;-40
2023/03/10 07:49:05;;;;;;;39.40;2.10;;;;;;;21.06;57.12;96863.69;7311209;19;129989;-41
2023/03/10 07:51:31;;;;;;;47.30;2.55;;;;;;;21.12;57.09;96875.94;7309040;19;129394;-38
2023/03/10 07:53:56;;;;;;;45.77;2.60;;;;;;;20.99;57.30;96852.44;7310796;19;128965;-39
2023/03/10 07:56:22;;;;;;;36.45;2.13;;;;;;;21.06;58.61;96871.53;7309741;19;129176;-35
2023/03/10 07:58:47;;;;;;;64.35;3.50;;;;;;;20.98;57.42;96856.06;7310664;19;129237;-36
2023/03/10 08:01:19;;;;;;;51.83;2.90;;;;;;;21.10;58.48;96879.78;7309224;19;129347;-41
2023/03/10 08:03:45;;;;;;;31.42;2.03;;;;;;;21.12;57.38;96881.16;7311594;19;129234;-40
2023/03/10 08:06:19;;;;;;;34.25;2.15;;;;;;;21.10;58.00;96875.34;7306713;19;129440;-42
2023/03/10 08:08:45;;;;;;;51.75;2.97;;;;;;;21.05;57.64;96880.38;7310076;19;130216;-41
2023/03/10 08:11:10;;;;;;;49.58;2.72;;;;;;;20.97;57.60;96864.91;7309679;19;130394;-38
2023/03/10 08:13:37;;;;;;;40.55;2.30;;;;;;;21.06;57.86;96884.59;7311059;19;128813;-37
2023/03/10 08:16:02;;;;;;;43.72;2.50;;;;;;;21.06;58.15;96884.59;7308191;19;128998;-39
2023/03/10 08:18:29;;;;;;;35.43;2.07;;;;;;;21.07;58.22;96891.44;7311167;19;130093;-39
2023/03/10 08:20:55;;;;;;;;;;;;;;;21.09;59.48;96884.19;7309543;19;130713;-37
2023/03/10 08:23:20;;;;;;;42.15;2.55;;;;;;;21.00;57.48;96890.63;7310896;19;128825;-36
2023/03/10 08:25:45;;;;;;;72.55;4.13;;;;;;;20.94;58.51;96883.56;7303068;19;129166;-39
2023/03/10 08:28:11;;;;;;;40.88;2.60;;;;;;;20.98;58.48;96895.25;7310038;19;129950;-40
2023/03/10 08:30:40;;;;;;;46.30;2.38;;;;;;;20.97;58.79;96891.03;7309415;19;129718;-41
2023/03/10 08:33:08;;;;;;;34.83;1.90;;;;;;;20.94;58.62;96886.16;7310869;19;129572;-36
2023/03/10 08:35:35;;;;;;;33.95;1.95;;;;;;;20.82;58.41;96866.09;7308905;19;129702;-38
2023/03/10 08:38:00;;;;;;;33.90;2.03;;;;;;;20.90;58.33;96879.75;7309919;19;129511;-38
2023/03/10 08:40:26;;;;;;;45.65;2.83;;;;;;;20.87;58.19;96879.34;7309625;19;129457;-38
2023/03/10 08:42:51;;;;;;;44.90;2.57;;;;;;;20.86;58.78;96869.91;7310060;19;129462;-39
2023/03/10 08:45:16;;;;;;;79.72;5.00;;;;;;;20.86;58.66;96870.69;7308036;19;129214;-41
2023/03/10 08:47:42;;;;;;;45.10;2.37;;;;;;;20.80;58.51;96866.28;7312745;19;129419;-41
2023/03/10 08:50:10;;;;;;;48.10;2.47;;;;;;;20.81;58.94;96865.28;7317584;19;130387;-38
2023/03/10 08:52:35;;;;;;;16.70;1.25;;;;;;;20.80;58.96;96858.44;7316330;19;129074;-36
2023/03/10 08:55:03;;;;;;;69.88;4.32;;;;;;;20.75;59.01;96850.41;7315959;19;130093;-35
2023/03/10 08:57:29;;;;;;;38.45;2.08;;;;;;;20.79;58.92;96856.03;7316132;19;129668;-34
2023/03/10 08:59:54;;;;;;;58.65;3.15;;;;;;;20.79;59.07;96846.41;7317366;19;129503;-41
2023/03/10 09:02:20;;;;;;;49.92;3.10;;;;;;;20.76;59.13;96846.00;7314981;19;131417;-36
2023/03/10 09:04:46;;;;;;;42.30;2.47;;;;;;;20.76;59.52;96852.00;7315831;19;129252;-37
2023/03/10 09:07:11;;;;;;;46.53;2.42;;;;;;;20.77;59.89;96851.81;7314291;19;130517;-37
2023/03/10 09:09:37;;;;;;;64.37;3.53;;;;;;;20.74;59.31;96860.06;7316542;19;129864;-36
2023/03/10 09:12:03;;;;;;;32.55;1.80;;;;;;;20.73;59.42;96852.41;7314442;19;128983;-38
2023/03/10 09:14:28;;;;;;;35.00;2.03;;;;;;;20.74;59.56;96838.38;7316332;19;129711;-35
2023/03/10 09:16:53;;;;;;;54.45;2.97;;;;;;;20.76;59.78;96843.41;7314394;19;129742;-37
2023/03/10 09:19:19;;;;;;;60.25;3.33;;;;;;;20.74;59.93;96827.94;7316288;19;129644;-42
2023/03/10 09:21:44;;;;;;;36.17;2.05;;;;;;;20.77;60.11;96840.59;7314194;19;129045;-36
2023/03/10 09:24:09;;;;;;;158.90;8.75;;;;;;;20.79;59.77;96835.97;7313458;19;130885;-41
2023/03/10 09:26:35;;;;;;;80.22;4.18;;;;;;;20.78;60.14;96836.97;7309443;19;130319;-43
2023/03/10 09:29:01;;;;;;;32.97;1.92;;;;;;;20.80;60.18;96855.03;7316052;19;129643;-36
2023/03/10 09:31:36;;;;;;;46.15;2.70;;;;;;;20.77;61.36;96835.38;7309091;19;130803;-42
2023/03/10 09:34:02;;;;;;;51.00;2.83;;;;;;;20.75;59.43;96855.63;7315618;19;129268;-38
2023/03/10 09:36:28;;;;;;;51.30;2.57;;;;;;;20.73;60.63;96866.28;7313329;19;129135;-40
2023/03/10 09:38:55;;;;;;;46.05;2.63;;;;;;;20.78;60.05;96860.47;7316189;19;130346;-38
2023/03/10 09:41:20;;;;;;;;;;;;;;;20.83;61.19;96872.91;7314987;19;129969;-40
2023/03/10 09:43:54;;;;;;;36.33;2.13;;;;;;;20.78;60.65;96873.50;7314811;19;128807;-41
2023/03/10 09:46:49;;;;;;;56.65;3.17;;;;;;;20.77;61.37;96874.53;7310043;19;130462;-42
2023/03/10 09:50:19;;;;;;;48.47;2.83;;;;;;;20.78;61.26;96865.69;7313185;19;130842;-39
2023/03/10 09:52:52;;;;;;;52.55;3.03;;;;;;;20.79;60.17;96872.53;7311437;19;129824;-38
2023/03/10 09:55:22;;;;;;;91.15;5.35;;;;;;;20.78;59.97;96868.28;7312260;19;128884;-41
2023/03/10 09:57:51;;;;;;;35.85;1.98;;;;;;;20.79;60.37;96877.75;7313440;19;130474;-36
2023/03/10 10:00:31;;;;;;;69.72;3.85;;;;;;;20.79;61.78;96869.91;7313002;19;129302;-39
2023/03/10 10:03:04;;;;;;;51.20;2.65;;;;;;;20.78;60.52;96870.91;7314840;19;128762;-39
2023/03/10 10:05:32;;;;;;;37.58;2.03;;;;;;;20.78;60.81;96868.28;7313446;19;130189;-39
2023/03/10 10:08:01;;;;;;;33.75;1.92;;;;;;;20.78;60.35;96865.69;7312789;19;129651;-37
2023/03/10 10:10:30;;;;;;;39.50;2.38;;;;;;;20.78;60.96;96870.91;7312849;19;130696;-41
2023/03/10 10:13:01;;;;;;;49.45;2.72;;;;;;;20.80;61.90;96878.53;7313576;19;129556;-43
2023/03/10 10:15:30;;;;;;;61.88;3.15;;;;;;;20.75;60.80;96858.25;7314092;19;128948;-41
2023/03/10 10:18:07;;;;;;;39.78;2.35;;;;;;;20.78;61.28;96865.69;7314035;19;129115;-37
2023/03/10 10:20:44;;;;;;;17.33;1.33;;;;;;;20.76;61.52;96846.78;7313461;19;130955;-40
2023/03/10 10:23:27;;;;;;;32.07;2.10;;;;;;;20.74;61.91;96859.28;7313573;19;129313;-40
2023/03/10 10:25:53;;;;;;;39.78;2.30;;;;;;;20.77;60.35;96856.25;7310474;19;129062;-40
2023/03/10 10:28:25;;;;;;;57.22;3.20;;;;;;;20.76;60.87;96856.44;7313303;19;129917;-40
2023/03/10 10:30:50;;;;;;;60.20;3.45;;;;;;;20.64;59.90;96843.19;7306334;19;130550;-39
2023/03/10 10:33:16;;;;;;;44.20;2.60;;;;;;;20.75;60.79;96855.63;7314610;19;129370;-38
2023/03/10 10:35:59;;;;;;;84.47;4.73;;;;;;;20.80;62.20;96861.06;7310862;19;129254;-41
2023/03/10 10:38:30;;;;;;;29.08;1.75;;;;;;;20.80;61.45;96852.41;7313064;19;130063;-38
2023/03/10 10:41:03;;;;;;;56.05;2.95;;;;;;;20.74;61.73;96859.28;7312625;19;129397;-38
2023/03/10 10:43:29;;;;;;;64.80;3.33;;;;;;;20.79;60.63;96866.50;7314071;19;129842;-40
2023/03/10 10:46:06;;;;;;;50.97;2.80;;;;;;;20.80;61.98;96853.22;7310295;19;128997;-37
2023/03/10 10:48:38;;;;;;;20.15;1.33;;;;;;;20.79;61.88;96863.88;7314331;19;129380;-40
2023/03/10 10:51:17;;;;;;;50.65;2.88;;;;;;;20.77;61.38;96858.84;7311845;19;130619;-40
2023/03/10 10:53:42;;;;;;;36.10;2.10;;;;;;;20.68;60.96;96849.59;7313602;19;129598;-39
2023/03/10 10:56:16;;;;;;;43.35;2.25;;;;;;;20.77;62.15;96869.31;7311941;19;129664;-35
2023/03/10 10:59:00;;;;;;;48.35;2.65;;;;;;;20.78;61.11;96863.06;7312794;19;129718;-38
2023/03/10 11:01:25;;;;;;;60.35;3.35;;;;;;;20.79;60.46;96871.72;7311557;19;129213;-42
2023/03/10 11:04:06;;;;;;;36.55;2.10;;;;;;;20.78;61.87;96870.91;7313480;19;129501;-39
2023/03/10 11:06:33;;;;;;;31.25;1.65;;;;;;;20.76;61.12;96862.47;7309582;19;129444;-40
2023/03/10 11:09:03;;;;;;;;;;;;;;;20.81;62.01;96869.72;7313974;19;129219;-37
2023/03/10 11:11:40;;;;;;;38.47;2.17;;;;;;;20.78;61.84;96863.06;7310342;19;129411;-34
2023/03/10 11:14:39;;;;;;;54.43;2.67;;;;;;;20.77;61.90;96866.69;7311862;19;129544;-41
2023/03/10 11:17:32;;;;;;;59.08;2.97;;;;;;;20.78;61.99;96876.13;7311161;19;129756;-36
2023/03/10 11:20:00;;;;;;;43.72;2.35;;;;;;;20.77;61.67;96875.31;7312068;19;129125;-38